sensor_id;sensor_type;location;lat;lon;timestamp;P1;durP1;ratioP1;P2;durP2;ratioP2
40322;SDS011;26030;51.164;17.100;2022-12-07T00:00:38;6.90;;;4.30;;
40322;SDS011;26030;51.164;17.100;2022-12-07T00:05:44;14.30;;;4.40;;
40322;SDS011;26030;51.164;17.100;2022-12-07T00:10:49;10.70;;;4.50;;
40322;SDS011;26030;51.164;17.100;2022-12-07T00:15:53;8.60;;;4.20;;
40322;SDS011;26030;51.164;17.100;2022-12-07T00:21:05;6.90;;;4.70;;
40322;SDS011;26030;51.164;17.100;2022-12-07T00:26:12;7.40;;;4.20;;
40322;SDS011;26030;51.164;17.100;2022-12-07T00:31:18;7.90;;;4.20;;
40322;SDS011;26030;51.164;17.100;2022-12-07T00:36:23;7.30;;;4.10;;
40322;SDS011;26030;51.164;17.100;2022-12-07T00:41:29;7.20;;;4.10;;
40322;SDS011;26030;51.164;17.100;2022-12-07T00:46:35;7.00;;;3.60;;
40322;SDS011;26030;51.164;17.100;2022-12-07T00:51:41;8.80;;;4.90;;
40322;SDS011;26030;51.164;17.100;2022-12-07T00:56:45;6.60;;;4.00;;
40322;SDS011;26030;51.164;17.100;2022-12-07T01:01:49;8.90;;;3.80;;
40322;SDS011;26030;51.164;17.100;2022-12-07T01:06:52;7.90;;;3.60;;
40322;SDS011;26030;51.164;17.100;2022-12-07T01:11:56;6.80;;;3.70;;
40322;SDS011;26030;51.164;17.100;2022-12-07T01:17:00;9.70;;;4.20;;
40322;SDS011;26030;51.164;17.100;2022-12-07T01:22:05;7.30;;;3.60;;
40322;SDS011;26030;51.164;17.100;2022-12-07T01:27:10;5.90;;;3.40;;
40322;SDS011;26030;51.164;17.100;2022-12-07T01:32:13;5.60;;;3.40;;
40322;SDS011;26030;51.164;17.100;2022-12-07T01:37:19;6.70;;;3.50;;
40322;SDS011;26030;51.164;17.100;2022-12-07T01:42:22;6.90;;;3.30;;
40322;SDS011;26030;51.164;17.100;2022-12-07T01:47:27;6.30;;;3.80;;
40322;SDS011;26030;51.164;17.100;2022-12-07T01:52:33;6.60;;;3.40;;
40322;SDS011;26030;51.164;17.100;2022-12-07T01:57:44;5.20;;;3.30;;
40322;SDS011;26030;51.164;17.100;2022-12-07T02:03:11;7.00;;;3.10;;
40322;SDS011;26030;51.164;17.100;2022-12-07T02:08:17;4.70;;;3.30;;
40322;SDS011;26030;51.164;17.100;2022-12-07T02:13:25;7.30;;;3.50;;
40322;SDS011;26030;51.164;17.100;2022-12-07T02:29:25;5.00;;;3.30;;
40322;SDS011;26030;51.164;17.100;2022-12-07T02:34:39;5.30;;;2.80;;
40322;SDS011;26030;51.164;17.100;2022-12-07T02:39:54;6.40;;;2.70;;
40322;SDS011;26030;51.164;17.100;2022-12-07T02:45:07;4.70;;;2.70;;
40322;SDS011;26030;51.164;17.100;2022-12-07T02:50:24;5.90;;;3.10;;
40322;SDS011;26030;51.164;17.100;2022-12-07T02:55:39;5.00;;;2.90;;
40322;SDS011;26030;51.164;17.100;2022-12-07T03:00:53;5.10;;;3.00;;
40322;SDS011;26030;51.164;17.100;2022-12-07T03:06:05;6.50;;;3.40;;
40322;SDS011;26030;51.164;17.100;2022-12-07T03:11:13;4.90;;;2.70;;
40322;SDS011;26030;51.164;17.100;2022-12-07T03:16:39;4.90;;;3.00;;
40322;SDS011;26030;51.164;17.100;2022-12-07T03:21:57;5.10;;;2.70;;
40322;SDS011;26030;51.164;17.100;2022-12-07T03:27:32;5.30;;;3.10;;
40322;SDS011;26030;51.164;17.100;2022-12-07T03:38:18;4.50;;;2.50;;
40322;SDS011;26030;51.164;17.100;2022-12-07T03:43:29;5.30;;;2.70;;
40322;SDS011;26030;51.164;17.100;2022-12-07T03:48:38;3.80;;;2.50;;
40322;SDS011;26030;51.164;17.100;2022-12-07T03:53:58;4.30;;;2.50;;
40322;SDS011;26030;51.164;17.100;2022-12-07T03:59:16;4.00;;;2.60;;
40322;SDS011;26030;51.164;17.100;2022-12-07T04:04:24;4.50;;;2.20;;
40322;SDS011;26030;51.164;17.100;2022-12-07T04:09:32;4.50;;;2.80;;
40322;SDS011;26030;51.164;17.100;2022-12-07T04:14:38;4.00;;;2.50;;
40322;SDS011;26030;51.164;17.100;2022-12-07T04:19:45;3.80;;;2.40;;
40322;SDS011;26030;51.164;17.100;2022-12-07T04:24:49;4.60;;;2.00;;
40322;SDS011;26030;51.164;17.100;2022-12-07T04:29:53;4.50;;;2.60;;
40322;SDS011;26030;51.164;17.100;2022-12-07T04:35:01;3.50;;;2.00;;
40322;SDS011;26030;51.164;17.100;2022-12-07T04:40:07;6.20;;;2.90;;
40322;SDS011;26030;51.164;17.100;2022-12-07T04:45:17;3.70;;;2.30;;
40322;SDS011;26030;51.164;17.100;2022-12-07T04:50:24;3.40;;;2.30;;
40322;SDS011;26030;51.164;17.100;2022-12-07T04:55:31;3.70;;;2.30;;
40322;SDS011;26030;51.164;17.100;2022-12-07T05:00:46;5.20;;;2.40;;
40322;SDS011;26030;51.164;17.100;2022-12-07T05:05:50;3.70;;;2.30;;
40322;SDS011;26030;51.164;17.100;2022-12-07T05:10:54;4.30;;;2.30;;
40322;SDS011;26030;51.164;17.100;2022-12-07T05:15:58;4.80;;;2.00;;
40322;SDS011;26030;51.164;17.100;2022-12-07T05:21:05;4.60;;;2.50;;
40322;SDS011;26030;51.164;17.100;2022-12-07T05:26:12;5.10;;;2.20;;
40322;SDS011;26030;51.164;17.100;2022-12-07T05:31:16;3.30;;;1.90;;
40322;SDS011;26030;51.164;17.100;2022-12-07T05:36:21;3.50;;;2.20;;
40322;SDS011;26030;51.164;17.100;2022-12-07T05:41:27;4.70;;;1.90;;
40322;SDS011;26030;51.164;17.100;2022-12-07T05:46:49;4.60;;;2.20;;
40322;SDS011;26030;51.164;17.100;2022-12-07T05:51:55;7.30;;;1.90;;
40322;SDS011;26030;51.164;17.100;2022-12-07T05:56:59;3.70;;;1.90;;
40322;SDS011;26030;51.164;17.100;2022-12-07T06:02:07;3.90;;;1.90;;
40322;SDS011;26030;51.164;17.100;2022-12-07T06:07:14;2.70;;;1.70;;
40322;SDS011;26030;51.164;17.100;2022-12-07T06:12:22;3.60;;;2.00;;
40322;SDS011;26030;51.164;17.100;2022-12-07T06:17:39;4.20;;;1.90;;
40322;SDS011;26030;51.164;17.100;2022-12-07T06:22:44;3.30;;;1.80;;
40322;SDS011;26030;51.164;17.100;2022-12-07T06:27:51;3.00;;;2.10;;
40322;SDS011;26030;51.164;17.100;2022-12-07T06:32:55;4.20;;;1.80;;
40322;SDS011;26030;51.164;17.100;2022-12-07T06:37:59;4.40;;;1.90;;
40322;SDS011;26030;51.164;17.100;2022-12-07T06:43:04;3.10;;;1.80;;
40322;SDS011;26030;51.164;17.100;2022-12-07T06:48:08;3.00;;;1.90;;
40322;SDS011;26030;51.164;17.100;2022-12-07T06:53:12;3.90;;;1.80;;
40322;SDS011;26030;51.164;17.100;2022-12-07T06:58:20;4.30;;;1.70;;
40322;SDS011;26030;51.164;17.100;2022-12-07T07:03:24;2.50;;;1.50;;
40322;SDS011;26030;51.164;17.100;2022-12-07T07:08:30;2.80;;;1.50;;
40322;SDS011;26030;51.164;17.100;2022-12-07T07:13:35;4.30;;;1.80;;
40322;SDS011;26030;51.164;17.100;2022-12-07T07:18:39;4.10;;;1.60;;
40322;SDS011;26030;51.164;17.100;2022-12-07T07:23:46;5.70;;;1.70;;
40322;SDS011;26030;51.164;17.100;2022-12-07T07:28:57;5.30;;;1.80;;
40322;SDS011;26030;51.164;17.100;2022-12-07T07:34:06;4.00;;;2.30;;
40322;SDS011;26030;51.164;17.100;2022-12-07T07:39:13;4.80;;;1.90;;
40322;SDS011;26030;51.164;17.100;2022-12-07T07:44:19;5.10;;;1.60;;
40322;SDS011;26030;51.164;17.100;2022-12-07T07:49:22;3.40;;;1.90;;
40322;SDS011;26030;51.164;17.100;2022-12-07T07:54:27;2.80;;;1.80;;
40322;SDS011;26030;51.164;17.100;2022-12-07T07:59:31;8.20;;;2.20;;
40322;SDS011;26030;51.164;17.100;2022-12-07T08:04:37;9.70;;;2.20;;
40322;SDS011;26030;51.164;17.100;2022-12-07T08:09:41;7.50;;;2.10;;
40322;SDS011;26030;51.164;17.100;2022-12-07T08:14:45;11.30;;;3.00;;
40322;SDS011;26030;51.164;17.100;2022-12-07T08:19:50;4.80;;;2.00;;
40322;SDS011;26030;51.164;17.100;2022-12-07T08:24:55;6.50;;;1.80;;
40322;SDS011;26030;51.164;17.100;2022-12-07T08:30:01;12.80;;;2.10;;
40322;SDS011;26030;51.164;17.100;2022-12-07T08:35:07;7.00;;;2.10;;
40322;SDS011;26030;51.164;17.100;2022-12-07T08:40:12;7.80;;;2.30;;
40322;SDS011;26030;51.164;17.100;2022-12-07T08:45:23;6.90;;;1.90;;
40322;SDS011;26030;51.164;17.100;2022-12-07T08:50:31;6.00;;;1.90;;
40322;SDS011;26030;51.164;17.100;2022-12-07T08:55:38;6.80;;;2.10;;
40322;SDS011;26030;51.164;17.100;2022-12-07T09:00:42;9.00;;;2.00;;
40322;SDS011;26030;51.164;17.100;2022-12-07T09:05:49;3.50;;;1.80;;
40322;SDS011;26030;51.164;17.100;2022-12-07T09:10:55;5.30;;;1.50;;
40322;SDS011;26030;51.164;17.100;2022-12-07T09:16:05;6.80;;;2.10;;
40322;SDS011;26030;51.164;17.100;2022-12-07T09:21:20;4.70;;;2.00;;
40322;SDS011;26030;51.164;17.100;2022-12-07T09:26:44;4.60;;;2.10;;
40322;SDS011;26030;51.164;17.100;2022-12-07T09:31:58;4.30;;;1.90;;
40322;SDS011;26030;51.164;17.100;2022-12-07T09:37:17;6.20;;;1.90;;
40322;SDS011;26030;51.164;17.100;2022-12-07T09:42:32;4.00;;;2.00;;
40322;SDS011;26030;51.164;17.100;2022-12-07T09:47:50;7.20;;;1.90;;
40322;SDS011;26030;51.164;17.100;2022-12-07T09:53:23;5.00;;;2.20;;
40322;SDS011;26030;51.164;17.100;2022-12-07T09:58:32;4.50;;;1.90;;
40322;SDS011;26030;51.164;17.100;2022-12-07T10:09:12;5.20;;;1.70;;
40322;SDS011;26030;51.164;17.100;2022-12-07T10:14:17;3.10;;;1.90;;
40322;SDS011;26030;51.164;17.100;2022-12-07T10:19:26;4.50;;;1.60;;
40322;SDS011;26030;51.164;17.100;2022-12-07T10:24:31;2.80;;;1.50;;
40322;SDS011;26030;51.164;17.100;2022-12-07T10:29:39;6.30;;;1.70;;
40322;SDS011;26030;51.164;17.100;2022-12-07T10:34:44;4.00;;;2.00;;
40322;SDS011;26030;51.164;17.100;2022-12-07T10:39:58;122.00;;;38.90;;
40322;SDS011;26030;51.164;17.100;2022-12-07T11:02:19;197.40;;;65.80;;
40322;SDS011;26030;51.164;17.100;2022-12-07T11:13:21;188.20;;;58.50;;
40322;SDS011;26030;51.164;17.100;2022-12-07T11:18:46;171.20;;;56.60;;
40322;SDS011;26030;51.164;17.100;2022-12-07T11:39:50;145.40;;;48.20;;
40322;SDS011;26030;51.164;17.100;2022-12-07T12:00:50;102.70;;;38.60;;
40322;SDS011;26030;51.164;17.100;2022-12-07T12:05:56;118.40;;;40.20;;
40322;SDS011;26030;51.164;17.100;2022-12-07T12:22:48;100.70;;;34.70;;
40322;SDS011;26030;51.164;17.100;2022-12-07T12:27:56;93.40;;;34.90;;
40322;SDS011;26030;51.164;17.100;2022-12-07T12:33:12;100.90;;;35.70;;
40322;SDS011;26030;51.164;17.100;2022-12-07T12:50:11;90.60;;;31.00;;
40322;SDS011;26030;51.164;17.100;2022-12-07T12:55:16;81.90;;;30.40;;
40322;SDS011;26030;51.164;17.100;2022-12-07T13:00:31;81.20;;;30.90;;
40322;SDS011;26030;51.164;17.100;2022-12-07T13:05:44;75.00;;;28.30;;
40322;SDS011;26030;51.164;17.100;2022-12-07T13:10:48;69.30;;;26.50;;
40322;SDS011;26030;51.164;17.100;2022-12-07T13:15:55;64.10;;;25.70;;
40322;SDS011;26030;51.164;17.100;2022-12-07T13:26:44;62.70;;;23.00;;
40322;SDS011;26030;51.164;17.100;2022-12-07T13:31:55;58.50;;;23.70;;
40322;SDS011;26030;51.164;17.100;2022-12-07T13:37:12;61.40;;;23.90;;
40322;SDS011;26030;51.164;17.100;2022-12-07T13:42:31;53.20;;;22.60;;
40322;SDS011;26030;51.164;17.100;2022-12-07T13:47:54;47.40;;;20.30;;
40322;SDS011;26030;51.164;17.100;2022-12-07T13:53:01;46.80;;;19.80;;
40322;SDS011;26030;51.164;17.100;2022-12-07T14:03:28;53.80;;;21.00;;
40322;SDS011;26030;51.164;17.100;2022-12-07T14:08:34;45.20;;;20.40;;
40322;SDS011;26030;51.164;17.100;2022-12-07T14:14:00;43.90;;;18.60;;
40322;SDS011;26030;51.164;17.100;2022-12-07T14:25:18;36.80;;;18.10;;
40322;SDS011;26030;51.164;17.100;2022-12-07T14:30:31;37.00;;;16.80;;
40322;SDS011;26030;51.164;17.100;2022-12-07T14:35:40;40.20;;;17.00;;
40322;SDS011;26030;51.164;17.100;2022-12-07T14:40:47;35.30;;;16.90;;
40322;SDS011;26030;51.164;17.100;2022-12-07T14:45:55;35.10;;;15.90;;
40322;SDS011;26030;51.164;17.100;2022-12-07T14:51:26;30.50;;;15.10;;
40322;SDS011;26030;51.164;17.100;2022-12-07T14:57:10;32.60;;;14.80;;
40322;SDS011;26030;51.164;17.100;2022-12-07T15:02:15;96.20;;;32.60;;
40322;SDS011;26030;51.164;17.100;2022-12-07T15:07:21;166.90;;;56.80;;
40322;SDS011;26030;51.164;17.100;2022-12-07T15:12:41;330.90;;;105.60;;
40322;SDS011;26030;51.164;17.100;2022-12-07T15:17:46;235.30;;;72.00;;
40322;SDS011;26030;51.164;17.100;2022-12-07T15:22:53;260.10;;;84.10;;
40322;SDS011;26030;51.164;17.100;2022-12-07T15:27:58;258.40;;;80.00;;
40322;SDS011;26030;51.164;17.100;2022-12-07T15:33:13;224.80;;;75.20;;
40322;SDS011;26030;51.164;17.100;2022-12-07T15:38:27;226.10;;;72.50;;
40322;SDS011;26030;51.164;17.100;2022-12-07T15:44:05;206.80;;;69.30;;
40322;SDS011;26030;51.164;17.100;2022-12-07T15:49:38;191.30;;;67.90;;
40322;SDS011;26030;51.164;17.100;2022-12-07T15:54:49;183.00;;;64.50;;
40322;SDS011;26030;51.164;17.100;2022-12-07T15:59:54;186.60;;;64.40;;
40322;SDS011;26030;51.164;17.100;2022-12-07T16:05:07;168.40;;;62.00;;
40322;SDS011;26030;51.164;17.100;2022-12-07T16:10:16;161.60;;;60.50;;
40322;SDS011;26030;51.164;17.100;2022-12-07T16:15:28;162.80;;;59.80;;
40322;SDS011;26030;51.164;17.100;2022-12-07T16:20:32;161.80;;;56.50;;
40322;SDS011;26030;51.164;17.100;2022-12-07T16:25:38;150.20;;;54.00;;
40322;SDS011;26030;51.164;17.100;2022-12-07T16:31:00;141.00;;;51.80;;
40322;SDS011;26030;51.164;17.100;2022-12-07T16:37:15;135.20;;;48.80;;
40322;SDS011;26030;51.164;17.100;2022-12-07T16:42:20;121.40;;;47.00;;
40322;SDS011;26030;51.164;17.100;2022-12-07T16:47:28;129.80;;;45.20;;
40322;SDS011;26030;51.164;17.100;2022-12-07T16:52:36;110.40;;;42.70;;
40322;SDS011;26030;51.164;17.100;2022-12-07T16:57:40;106.70;;;39.10;;
40322;SDS011;26030;51.164;17.100;2022-12-07T17:02:45;104.70;;;40.10;;
40322;SDS011;26030;51.164;17.100;2022-12-07T17:07:49;101.00;;;37.00;;
40322;SDS011;26030;51.164;17.100;2022-12-07T17:12:53;89.00;;;32.80;;
40322;SDS011;26030;51.164;17.100;2022-12-07T17:17:59;89.60;;;34.10;;
40322;SDS011;26030;51.164;17.100;2022-12-07T17:23:04;89.20;;;30.40;;
40322;SDS011;26030;51.164;17.100;2022-12-07T17:28:09;94.50;;;32.60;;
40322;SDS011;26030;51.164;17.100;2022-12-07T17:33:13;72.00;;;29.10;;
40322;SDS011;26030;51.164;17.100;2022-12-07T17:38:33;67.90;;;29.10;;
40322;SDS011;26030;51.164;17.100;2022-12-07T17:43:38;70.00;;;26.70;;
40322;SDS011;26030;51.164;17.100;2022-12-07T17:48:44;72.70;;;28.00;;
40322;SDS011;26030;51.164;17.100;2022-12-07T17:53:49;68.20;;;27.00;;
40322;SDS011;26030;51.164;17.100;2022-12-07T17:59:14;65.00;;;24.20;;
40322;SDS011;26030;51.164;17.100;2022-12-07T18:04:25;66.60;;;24.20;;
40322;SDS011;26030;51.164;17.100;2022-12-07T18:09:30;61.50;;;24.20;;
40322;SDS011;26030;51.164;17.100;2022-12-07T18:14:38;61.80;;;25.40;;
40322;SDS011;26030;51.164;17.100;2022-12-07T18:20:10;84.40;;;37.90;;
40322;SDS011;26030;51.164;17.100;2022-12-07T18:25:14;69.20;;;31.10;;
40322;SDS011;26030;51.164;17.100;2022-12-07T18:30:22;61.80;;;27.60;;
40322;SDS011;26030;51.164;17.100;2022-12-07T18:36:03;57.50;;;24.70;;
40322;SDS011;26030;51.164;17.100;2022-12-07T18:41:13;58.80;;;25.50;;
40322;SDS011;26030;51.164;17.100;2022-12-07T18:46:34;53.70;;;23.50;;
40322;SDS011;26030;51.164;17.100;2022-12-07T18:51:48;51.00;;;21.10;;
40322;SDS011;26030;51.164;17.100;2022-12-07T18:56:52;49.50;;;22.10;;
40322;SDS011;26030;51.164;17.100;2022-12-07T19:02:06;47.50;;;20.70;;
40322;SDS011;26030;51.164;17.100;2022-12-07T19:07:26;46.60;;;20.30;;
40322;SDS011;26030;51.164;17.100;2022-12-07T19:12:31;42.90;;;18.10;;
40322;SDS011;26030;51.164;17.100;2022-12-07T19:17:35;50.00;;;18.00;;
40322;SDS011;26030;51.164;17.100;2022-12-07T19:22:42;41.20;;;17.50;;
40322;SDS011;26030;51.164;17.100;2022-12-07T19:27:56;44.70;;;16.20;;
40322;SDS011;26030;51.164;17.100;2022-12-07T19:33:00;42.70;;;15.30;;
40322;SDS011;26030;51.164;17.100;2022-12-07T19:38:19;37.10;;;14.40;;
40322;SDS011;26030;51.164;17.100;2022-12-07T19:43:28;37.00;;;14.20;;
40322;SDS011;26030;51.164;17.100;2022-12-07T19:48:33;78.70;;;29.90;;
40322;SDS011;26030;51.164;17.100;2022-12-07T19:53:37;153.50;;;52.10;;
40322;SDS011;26030;51.164;17.100;2022-12-07T19:58:42;186.10;;;64.40;;
40322;SDS011;26030;51.164;17.100;2022-12-07T20:03:53;224.10;;;71.10;;
40322;SDS011;26030;51.164;17.100;2022-12-07T20:09:04;214.20;;;69.90;;
40322;SDS011;26030;51.164;17.100;2022-12-07T20:14:09;187.50;;;65.50;;
40322;SDS011;26030;51.164;17.100;2022-12-07T20:19:15;183.10;;;61.60;;
40322;SDS011;26030;51.164;17.100;2022-12-07T20:24:36;185.50;;;62.30;;
40322;SDS011;26030;51.164;17.100;2022-12-07T20:29:47;177.80;;;59.40;;
40322;SDS011;26030;51.164;17.100;2022-12-07T20:34:56;147.20;;;52.20;;
40322;SDS011;26030;51.164;17.100;2022-12-07T20:40:10;151.00;;;51.40;;
40322;SDS011;26030;51.164;17.100;2022-12-07T20:45:24;142.00;;;51.10;;
40322;SDS011;26030;51.164;17.100;2022-12-07T20:50:31;135.70;;;45.10;;
40322;SDS011;26030;51.164;17.100;2022-12-07T20:55:44;128.40;;;46.40;;
40322;SDS011;26030;51.164;17.100;2022-12-07T21:01:03;123.80;;;44.20;;
40322;SDS011;26030;51.164;17.100;2022-12-07T21:06:18;122.50;;;41.70;;
40322;SDS011;26030;51.164;17.100;2022-12-07T21:11:23;108.40;;;39.70;;
40322;SDS011;26030;51.164;17.100;2022-12-07T21:16:29;101.80;;;38.90;;
40322;SDS011;26030;51.164;17.100;2022-12-07T21:21:34;93.10;;;37.30;;
40322;SDS011;26030;51.164;17.100;2022-12-07T21:26:40;94.40;;;36.30;;
40322;SDS011;26030;51.164;17.100;2022-12-07T21:31:45;97.70;;;36.60;;
40322;SDS011;26030;51.164;17.100;2022-12-07T21:36:49;87.00;;;32.50;;
40322;SDS011;26030;51.164;17.100;2022-12-07T21:41:53;83.50;;;30.80;;
40322;SDS011;26030;51.164;17.100;2022-12-07T21:47:27;81.00;;;31.00;;
40322;SDS011;26030;51.164;17.100;2022-12-07T21:52:45;79.20;;;28.80;;
40322;SDS011;26030;51.164;17.100;2022-12-07T21:58:01;74.10;;;28.50;;
40322;SDS011;26030;51.164;17.100;2022-12-07T22:03:25;69.80;;;26.80;;
40322;SDS011;26030;51.164;17.100;2022-12-07T22:08:46;61.70;;;25.50;;
40322;SDS011;26030;51.164;17.100;2022-12-07T22:13:57;62.90;;;24.50;;
40322;SDS011;26030;51.164;17.100;2022-12-07T22:19:23;58.30;;;22.20;;
40322;SDS011;26030;51.164;17.100;2022-12-07T22:24:29;53.50;;;22.40;;
40322;SDS011;26030;51.164;17.100;2022-12-07T22:29:45;50.30;;;21.20;;
40322;SDS011;26030;51.164;17.100;2022-12-07T22:35:05;45.30;;;19.60;;
40322;SDS011;26030;51.164;17.100;2022-12-07T22:40:10;43.10;;;18.60;;
40322;SDS011;26030;51.164;17.100;2022-12-07T22:45:16;41.80;;;19.20;;
40322;SDS011;26030;51.164;17.100;2022-12-07T22:50:21;43.10;;;18.90;;
40322;SDS011;26030;51.164;17.100;2022-12-07T22:55:48;45.80;;;16.40;;
40322;SDS011;26030;51.164;17.100;2022-12-07T23:01:10;39.10;;;17.50;;
40322;SDS011;26030;51.164;17.100;2022-12-07T23:06:35;36.20;;;16.40;;
40322;SDS011;26030;51.164;17.100;2022-12-07T23:11:41;37.40;;;16.20;;
40322;SDS011;26030;51.164;17.100;2022-12-07T23:17:07;30.50;;;15.00;;
40322;SDS011;26030;51.164;17.100;2022-12-07T23:22:11;33.40;;;15.40;;
40322;SDS011;26030;51.164;17.100;2022-12-07T23:27:17;32.60;;;15.60;;
40322;SDS011;26030;51.164;17.100;2022-12-07T23:32:31;33.40;;;13.50;;
40322;SDS011;26030;51.164;17.100;2022-12-07T23:37:43;39.30;;;16.00;;
40322;SDS011;26030;51.164;17.100;2022-12-07T23:42:50;29.10;;;13.70;;
40322;SDS011;26030;51.164;17.100;2022-12-07T23:48:21;33.00;;;13.70;;
40322;SDS011;26030;51.164;17.100;2022-12-07T23:53:31;33.60;;;12.30;;
40322;SDS011;26030;51.164;17.100;2022-12-07T23:58:36;30.30;;;13.90;;
